createdAt,value
2018-08-17T00:01:20.960Z,94.30
2018-08-17T00:03:51.512Z,95.00
2018-08-17T00:06:22.048Z,95.60
2018-08-17T00:08:52.655Z,95.90
2018-08-17T00:11:22.926Z,96.80
2018-08-17T00:13:53.228Z,97.90
2018-08-17T00:16:23.512Z,98.70
2018-08-17T00:18:54.116Z,99.30
2018-08-17T00:21:24.427Z,99.70
2018-08-17T00:23:54.794Z,99.90
2018-08-17T00:26:25.267Z,99.90
2018-08-17T00:28:55.815Z,99.90
2018-08-17T00:31:26.288Z,99.90
2018-08-17T00:33:56.665Z,99.90
2018-08-17T00:36:27.244Z,99.90
2018-08-17T00:38:57.904Z,99.90
2018-08-17T00:41:28.415Z,99.90
2018-08-17T00:43:58.758Z,99.90
2018-08-17T00:46:29.218Z,99.90
2018-08-17T00:48:59.597Z,99.90
2018-08-17T00:51:30.048Z,99.90
2018-08-17T00:54:00.472Z,99.90
2018-08-17T00:56:31.049Z,99.90
2018-08-17T00:59:01.542Z,99.90
2018-08-17T01:01:32.011Z,99.90
2018-08-17T01:04:02.333Z,99.90
2018-08-17T01:06:32.687Z,99.90
2018-08-17T01:09:03.109Z,99.90
2018-08-17T01:11:33.639Z,99.90
2018-08-17T01:14:04.119Z,99.90
2018-08-17T01:16:34.728Z,99.90
2018-08-17T01:19:05.375Z,99.90
2018-08-17T01:21:35.573Z,99.90
2018-08-17T01:24:05.949Z,99.90
2018-08-17T01:26:36.338Z,99.90
2018-08-17T01:29:06.788Z,99.90
2018-08-17T01:31:37.213Z,99.90
2018-08-17T01:34:07.696Z,99.90
2018-08-17T01:36:38.235Z,99.90
2018-08-17T01:39:10.056Z,99.90
2018-08-17T01:41:40.661Z,99.90
2018-08-17T01:44:10.992Z,99.90
2018-08-17T01:46:41.508Z,99.90
2018-08-17T01:49:12.146Z,99.90
2018-08-17T01:51:42.511Z,99.90
2018-08-17T01:54:12.873Z,99.90
2018-08-17T01:56:43.238Z,99.90
2018-08-17T01:59:13.707Z,99.90
2018-08-17T02:01:44.191Z,99.90
2018-08-17T02:04:14.702Z,99.90
2018-08-17T02:06:45.279Z,99.90
2018-08-17T02:09:15.888Z,99.90
2018-08-17T02:11:46.202Z,99.90
2018-08-17T02:14:16.632Z,99.90
2018-08-17T02:16:47.175Z,99.90
2018-08-17T02:19:17.777Z,99.90
2018-08-17T02:21:48.596Z,99.90
2018-08-17T02:24:19.175Z,99.90
2018-08-17T02:26:49.666Z,99.90
2018-08-17T02:29:20.138Z,99.90
2018-08-17T02:31:50.580Z,99.90
2018-08-17T02:34:21.266Z,99.90
2018-08-17T02:36:51.758Z,99.90
2018-08-17T02:39:22.311Z,99.90
2018-08-17T02:41:52.629Z,99.90
2018-08-17T02:44:23.154Z,99.90
2018-08-17T02:46:53.404Z,99.90
2018-08-17T02:49:24.029Z,99.90
2018-08-17T02:51:54.375Z,99.90
2018-08-17T02:54:24.604Z,99.90
2018-08-17T02:56:55.154Z,99.90
2018-08-17T02:59:25.778Z,99.90
2018-08-17T03:01:56.193Z,99.90
2018-08-17T03:04:26.571Z,99.90
2018-08-17T03:06:57.136Z,99.90
2018-08-17T03:09:27.635Z,99.90
2018-08-17T03:11:59.889Z,99.90
2018-08-17T03:14:30.274Z,99.90
2018-08-17T03:17:00.504Z,99.90
2018-08-17T03:19:30.898Z,99.90
2018-08-17T03:22:01.212Z,99.90
2018-08-17T03:24:31.759Z,99.90
2018-08-17T03:27:02.095Z,99.90
2018-08-17T03:29:32.435Z,99.90
2018-08-17T03:32:02.964Z,99.90
2018-08-17T03:34:34.718Z,99.90
2018-08-17T03:37:05.963Z,99.90
2018-08-17T03:39:36.488Z,99.90
2018-08-17T03:42:07.029Z,99.90
2018-08-17T03:44:37.501Z,99.90
2018-08-17T03:47:07.850Z,99.90
2018-08-17T03:49:38.318Z,99.90
2018-08-17T03:52:08.977Z,99.90
2018-08-17T03:54:39.391Z,99.90
2018-08-17T03:57:10.137Z,99.90
2018-08-17T03:59:40.504Z,99.90
2018-08-17T04:02:11.125Z,99.90
2018-08-17T04:04:41.934Z,99.90
2018-08-17T04:07:12.538Z,99.90
2018-08-17T04:09:42.869Z,99.90
2018-08-17T04:12:13.418Z,99.90
2018-08-17T04:14:43.860Z,99.90
2018-08-17T04:17:14.282Z,99.90
2018-08-17T04:19:44.716Z,99.90
2018-08-17T04:22:14.922Z,99.90
2018-08-17T04:24:45.375Z,99.90
2018-08-17T04:27:15.903Z,99.90
2018-08-17T04:29:46.480Z,99.90
2018-08-17T04:32:17.084Z,99.90
2018-08-17T04:34:47.658Z,99.90
2018-08-17T04:37:18.049Z,99.90
2018-08-17T04:39:48.532Z,99.90
2018-08-17T04:42:19.012Z,99.90
2018-08-17T04:44:49.449Z,99.90
2018-08-17T04:47:20.214Z,99.90
2018-08-17T04:49:50.812Z,99.90
2018-08-17T04:52:20.954Z,99.90
2018-08-17T04:54:51.193Z,99.90
2018-08-17T04:57:21.670Z,99.90
2018-08-17T04:59:52.243Z,99.90
2018-08-17T05:02:22.633Z,99.90
2018-08-17T05:04:52.958Z,99.90
2018-08-17T05:07:23.464Z,99.90
2018-08-17T05:09:53.938Z,99.90
2018-08-17T05:12:24.449Z,99.90
2018-08-17T05:14:54.889Z,99.90
2018-08-17T05:17:25.200Z,99.90
2018-08-17T05:19:55.595Z,99.90
2018-08-17T05:22:25.945Z,99.90
2018-08-17T05:24:56.425Z,99.90
2018-08-17T05:27:26.744Z,99.90
2018-08-17T05:29:57.451Z,99.90
2018-08-17T05:32:28.008Z,99.90
2018-08-17T05:34:58.340Z,99.90
2018-08-17T05:37:28.686Z,99.90
2018-08-17T05:39:59.335Z,99.90
2018-08-17T05:42:29.940Z,99.90
2018-08-17T05:45:00.344Z,99.90
2018-08-17T05:47:30.833Z,99.90
2018-08-17T05:50:01.478Z,99.90
2018-08-17T05:52:31.750Z,99.90
2018-08-17T05:55:02.319Z,99.90
2018-08-17T05:57:32.696Z,99.90
2018-08-17T06:00:03.130Z,99.90
2018-08-17T06:02:33.472Z,99.90
2018-08-17T06:05:04.001Z,99.00
2018-08-17T06:07:34.757Z,97.80
2018-08-17T06:10:05.764Z,96.40
2018-08-17T06:12:36.366Z,95.50
2018-08-17T06:15:07.736Z,94.60
2018-08-17T06:17:38.018Z,93.50
2018-08-17T06:20:09.123Z,92.50
2018-08-17T06:22:39.640Z,91.80
2018-08-17T06:25:13.671Z,91.30
2018-08-17T06:27:44.201Z,90.10
2018-08-17T06:30:15.248Z,86.70
2018-08-17T06:32:46.189Z,84.40
2018-08-17T06:35:16.549Z,83.20
2018-08-17T06:37:46.996Z,82.70
2018-08-17T06:40:17.413Z,81.90
2018-08-17T06:42:47.888Z,79.90
2018-08-17T06:45:18.628Z,78.60
2018-08-17T06:47:49.128Z,76.90
2018-08-17T06:50:19.972Z,75.80
2018-08-17T06:52:50.724Z,74.30
2018-08-17T06:55:21.402Z,73.30
2018-08-17T06:57:51.753Z,72.70
2018-08-17T07:00:22.047Z,72.20
2018-08-17T07:02:52.591Z,71.00
2018-08-17T07:05:22.845Z,70.90
2018-08-17T07:07:53.566Z,70.00
2018-08-17T07:10:24.034Z,69.50
2018-08-17T07:12:54.806Z,69.00
2018-08-17T07:15:25.493Z,67.60
2018-08-17T07:17:56.040Z,67.50
2018-08-17T07:20:26.592Z,66.70
2018-08-17T07:22:56.881Z,66.10
2018-08-17T07:25:27.407Z,65.20
2018-08-17T07:27:58.025Z,64.90
2018-08-17T07:30:28.573Z,64.10
2018-08-17T07:32:59.119Z,63.70
2018-08-17T07:35:29.557Z,62.60
2018-08-17T07:37:59.937Z,61.70
2018-08-17T07:40:30.307Z,61.00
2018-08-17T07:43:00.688Z,60.60
2018-08-17T07:45:30.834Z,60.00
2018-08-17T07:48:01.269Z,59.30
2018-08-17T07:50:31.580Z,58.90
2018-08-17T07:53:01.834Z,58.20
2018-08-17T07:55:32.424Z,57.80
2018-08-17T07:58:02.688Z,58.00
2018-08-17T08:00:33.135Z,57.10
2018-08-17T08:03:03.982Z,56.00
2018-08-17T08:05:34.227Z,55.40
2018-08-17T08:08:04.692Z,55.40
2018-08-17T08:10:34.921Z,54.60
2018-08-17T08:13:05.538Z,54.50
2018-08-17T08:15:36.064Z,54.10
2018-08-17T08:18:06.379Z,53.60
2018-08-17T08:20:38.365Z,53.20
2018-08-17T08:23:19.181Z,53.50
2018-08-17T08:25:49.494Z,52.20
2018-08-17T08:28:20.010Z,51.60
2018-08-17T08:30:50.274Z,51.20
2018-08-17T08:33:20.943Z,50.90
2018-08-17T08:35:51.679Z,50.40
2018-08-17T08:38:22.254Z,50.30
2018-08-17T08:40:52.878Z,49.50
2018-08-17T08:43:23.318Z,48.80
2018-08-17T08:45:53.763Z,48.30
2018-08-17T08:48:23.956Z,47.40
2018-08-17T08:50:54.331Z,47.10
2018-08-17T08:53:25.013Z,46.90
2018-08-17T08:55:55.334Z,46.60
2018-08-17T08:58:25.813Z,46.40
2018-08-17T09:00:59.926Z,46.00
2018-08-17T09:03:31.064Z,45.70
2018-08-17T09:06:01.377Z,44.60
2018-08-17T09:08:31.581Z,44.20
2018-08-17T09:11:01.867Z,44.20
2018-08-17T09:13:32.331Z,43.00
2018-08-17T09:16:03.870Z,43.20
2018-08-17T09:18:34.292Z,43.10
2018-08-17T09:21:04.713Z,42.80
2018-08-17T09:23:35.241Z,42.30
2018-08-17T09:26:05.726Z,42.90
2018-08-17T09:28:35.916Z,43.30
2018-08-17T09:31:06.516Z,43.50
2018-08-17T09:33:36.954Z,43.30
2018-08-17T09:36:07.674Z,42.70
2018-08-17T09:38:37.957Z,41.90
2018-08-17T09:41:08.357Z,42.40
2018-08-17T09:43:38.801Z,42.00
2018-08-17T09:46:09.330Z,42.20
2018-08-17T09:48:39.853Z,42.00
2018-08-17T09:51:10.883Z,41.50
2018-08-17T09:53:42.036Z,41.30
2018-08-17T09:56:12.424Z,41.20
2018-08-17T09:58:44.066Z,41.10
2018-08-17T10:01:20.731Z,40.70
2018-08-17T10:03:56.008Z,40.10
2018-08-17T10:06:31.335Z,39.70
2018-08-17T10:09:06.526Z,39.50
2018-08-17T10:11:36.915Z,38.90
2018-08-17T10:14:07.321Z,38.80
2018-08-17T10:16:37.891Z,39.10
2018-08-17T10:19:08.177Z,39.10
2018-08-17T10:21:44.164Z,39.20
2018-08-17T10:24:14.009Z,38.70
2018-08-17T10:26:45.176Z,38.30
2018-08-17T10:29:15.724Z,38.50
2018-08-17T10:31:46.948Z,38.50
2018-08-17T10:34:18.217Z,38.10
2018-08-17T10:36:48.650Z,37.70
2018-08-17T10:39:19.233Z,37.60
2018-08-17T10:41:49.637Z,37.30
2018-08-17T10:44:19.963Z,37.60
2018-08-17T10:46:50.234Z,36.40
2018-08-17T10:49:20.527Z,36.90
2018-08-17T10:51:50.776Z,36.40
2018-08-17T10:54:21.203Z,36.10
2018-08-17T10:56:51.853Z,35.50
2018-08-17T10:59:22.569Z,35.60
2018-08-17T11:01:58.043Z,36.40
2018-08-17T11:04:28.893Z,35.40
2018-08-17T11:06:59.242Z,35.40
2018-08-17T11:09:29.609Z,35.20
2018-08-17T11:11:59.945Z,34.90
2018-08-17T11:14:30.341Z,35.20
2018-08-17T11:17:00.768Z,34.80
2018-08-17T11:19:31.155Z,35.10
2018-08-17T11:22:01.713Z,34.40
2018-08-17T11:24:31.936Z,34.50
2018-08-17T11:27:02.478Z,34.50
2018-08-17T11:29:32.937Z,34.30
2018-08-17T11:32:03.506Z,34.40
2018-08-17T11:34:33.946Z,34.00
2018-08-17T11:37:04.414Z,34.00
2018-08-17T11:39:34.716Z,34.30
2018-08-17T11:42:04.926Z,33.90
2018-08-17T11:44:35.197Z,33.60
2018-08-17T11:47:05.523Z,33.70
2018-08-17T11:49:35.868Z,33.60
2018-08-17T11:52:06.188Z,33.30
2018-08-17T11:54:36.565Z,32.50
2018-08-17T11:57:07.008Z,32.50
2018-08-17T11:59:44.516Z,32.70
2018-08-17T12:02:15.374Z,31.90
2018-08-17T12:04:45.777Z,32.20
2018-08-17T12:07:16.508Z,32.30
2018-08-17T12:09:52.668Z,32.40
2018-08-17T12:12:22.911Z,31.90
2018-08-17T12:14:53.216Z,30.90
2018-08-17T12:17:23.704Z,31.80
2018-08-17T12:19:54.324Z,32.30
2018-08-17T12:22:24.610Z,32.80
2018-08-17T12:24:55.080Z,32.70
2018-08-17T12:27:25.990Z,32.00
2018-08-17T12:29:56.230Z,32.30
2018-08-17T12:32:26.630Z,32.90
2018-08-17T12:34:56.997Z,33.00
2018-08-17T12:37:27.454Z,33.70
2018-08-17T12:39:57.832Z,33.00
2018-08-17T12:42:27.993Z,33.00
2018-08-17T12:45:02.918Z,32.70
2018-08-17T12:47:33.478Z,32.00
2018-08-17T12:50:03.887Z,32.10
2018-08-17T12:52:34.191Z,31.80
2018-08-17T12:55:04.860Z,32.10
2018-08-17T12:57:40.036Z,31.90
2018-08-17T13:00:11.260Z,31.60
2018-08-17T13:02:42.052Z,31.60
2018-08-17T13:05:12.377Z,32.40
2018-08-17T13:07:43.110Z,31.80
2018-08-17T13:10:13.881Z,32.00
2018-08-17T13:12:47.959Z,31.10
2018-08-17T13:15:18.326Z,31.90
2018-08-17T13:17:48.807Z,31.60
2018-08-17T13:20:20.026Z,32.30
2018-08-17T13:22:51.172Z,31.70
2018-08-17T13:25:21.489Z,30.80
2018-08-17T13:27:51.815Z,31.20
2018-08-17T13:30:22.112Z,31.60
2018-08-17T13:32:54.846Z,31.20
2018-08-17T13:35:25.441Z,30.90
2018-08-17T13:37:55.967Z,30.60
2018-08-17T13:40:26.350Z,30.40
2018-08-17T13:42:56.859Z,30.50
2018-08-17T13:45:27.397Z,30.60
2018-08-17T13:47:57.825Z,30.80
2018-08-17T13:50:28.470Z,30.90
2018-08-17T13:52:58.790Z,31.00
2018-08-17T13:55:29.118Z,30.50
2018-08-17T13:57:59.489Z,30.80
2018-08-17T14:00:29.876Z,31.20
2018-08-17T14:03:00.668Z,31.20
2018-08-17T14:05:30.954Z,31.20
2018-08-17T14:08:01.187Z,31.10
2018-08-17T14:10:31.759Z,31.50
2018-08-17T14:13:02.604Z,32.00
2018-08-17T14:15:33.056Z,32.20
2018-08-17T14:18:03.355Z,31.70
2018-08-17T14:20:33.824Z,31.60
2018-08-17T14:25:43.667Z,30.70
2018-08-17T14:28:14.245Z,31.00
2018-08-17T14:30:44.691Z,30.70
2018-08-17T14:33:15.603Z,30.80
2018-08-17T14:35:46.104Z,29.80
2018-08-17T14:38:17.726Z,29.80
2018-08-17T14:40:48.093Z,29.80
2018-08-17T14:43:18.491Z,29.60
2018-08-17T14:45:48.919Z,29.80
2018-08-17T14:48:19.316Z,29.50
2018-08-17T14:50:49.892Z,29.60
2018-08-17T14:53:20.435Z,29.60
2018-08-17T14:55:51.068Z,29.90
2018-08-17T14:58:22.028Z,29.50
2018-08-17T15:00:52.532Z,29.50
2018-08-17T15:03:22.957Z,29.70
2018-08-17T15:05:53.323Z,29.80
2018-08-17T15:08:23.526Z,29.50
2018-08-17T15:10:53.812Z,29.90
2018-08-17T15:13:24.247Z,30.40
2018-08-17T15:15:54.673Z,30.60
2018-08-17T15:18:25.068Z,30.20
2018-08-17T15:20:55.844Z,30.50
2018-08-17T15:23:26.316Z,30.50
2018-08-17T15:25:56.732Z,30.60
2018-08-17T15:28:27.146Z,30.70
2018-08-17T15:30:57.639Z,30.80
2018-08-17T15:33:28.009Z,30.70
2018-08-17T15:35:58.432Z,30.80
2018-08-17T15:38:28.836Z,30.20
2018-08-17T15:40:59.329Z,30.60
2018-08-17T15:43:29.898Z,30.90
2018-08-17T15:46:00.549Z,31.10
2018-08-17T15:48:40.079Z,30.70
2018-08-17T15:51:12.279Z,30.60
2018-08-17T15:53:43.127Z,30.40
2018-08-17T15:56:14.012Z,30.30
2018-08-17T15:58:44.424Z,30.40
2018-08-17T16:01:15.479Z,30.60
2018-08-17T16:03:46.094Z,30.70
2018-08-17T16:06:16.539Z,30.60
2018-08-17T16:08:47.220Z,30.70
2018-08-17T16:11:17.897Z,30.80
2018-08-17T16:13:48.305Z,30.90
2018-08-17T16:16:18.817Z,30.70
2018-08-17T16:18:49.605Z,30.30
2018-08-17T16:21:20.223Z,30.50
2018-08-17T16:23:50.620Z,30.20
2018-08-17T16:26:21.317Z,30.50
2018-08-17T16:28:51.824Z,30.80
2018-08-17T16:31:22.318Z,31.10
2018-08-17T16:33:52.873Z,30.80
2018-08-17T16:36:24.557Z,30.80
2018-08-17T16:38:55.132Z,31.00
2018-08-17T16:41:25.801Z,31.10
2018-08-17T16:43:56.244Z,31.30
2018-08-17T16:46:26.525Z,31.40
2018-08-17T16:48:57.295Z,31.70
2018-08-17T16:51:27.826Z,31.80
2018-08-17T16:53:58.743Z,32.10
2018-08-17T16:56:29.072Z,32.20
2018-08-17T16:58:59.602Z,32.70
2018-08-17T17:01:30.116Z,32.70
2018-08-17T17:04:00.640Z,32.90
2018-08-17T17:06:31.041Z,33.20
2018-08-17T17:09:03.892Z,33.40
2018-08-17T17:11:34.685Z,34.00
2018-08-17T17:14:05.444Z,34.80
2018-08-17T17:16:41.591Z,34.50
2018-08-17T17:19:17.529Z,34.60
2018-08-17T17:21:48.943Z,34.80
2018-08-17T17:24:20.753Z,34.90
2018-08-17T17:26:51.220Z,35.20
2018-08-17T17:29:21.980Z,35.20
2018-08-17T17:31:52.226Z,35.40
2018-08-17T17:34:23.839Z,35.90
2018-08-17T17:36:54.215Z,36.50
2018-08-17T17:39:25.565Z,36.90
2018-08-17T17:41:55.964Z,37.10
2018-08-17T17:44:26.376Z,37.50
2018-08-17T17:46:57.576Z,37.80
2018-08-17T17:49:28.442Z,38.10
2018-08-17T17:51:58.928Z,38.40
2018-08-17T17:54:29.620Z,38.30
2018-08-17T17:57:03.819Z,38.40
2018-08-17T17:59:34.444Z,38.90
2018-08-17T18:02:04.908Z,39.10
2018-08-17T18:04:35.324Z,39.90
2018-08-17T18:07:05.766Z,40.00
2018-08-17T18:09:36.243Z,40.20
2018-08-17T18:12:06.651Z,40.80
2018-08-17T18:14:37.156Z,40.30
2018-08-17T18:17:07.938Z,42.90
2018-08-17T18:19:38.635Z,44.20
2018-08-17T18:22:13.362Z,44.80
2018-08-17T18:24:43.889Z,45.50
2018-08-17T18:27:14.826Z,45.90
2018-08-17T18:29:45.358Z,46.50
2018-08-17T18:32:15.906Z,47.00
2018-08-17T18:34:46.781Z,47.60
2018-08-17T18:37:17.098Z,48.20
2018-08-17T18:39:47.627Z,48.90
2018-08-17T18:42:18.443Z,49.40
2018-08-17T18:44:48.992Z,49.80
2018-08-17T18:47:19.432Z,49.80
2018-08-17T18:49:49.783Z,49.70
2018-08-17T18:52:20.368Z,50.20
2018-08-17T18:54:51.214Z,50.40
2018-08-17T18:57:21.713Z,50.60
2018-08-17T18:59:52.499Z,50.80
2018-08-17T19:02:24.281Z,51.10
2018-08-17T19:04:54.877Z,51.30
2018-08-17T19:07:25.343Z,51.70
2018-08-17T19:27:58.710Z,52.90
2018-08-17T19:30:33.759Z,53.00
2018-08-17T19:33:09.311Z,53.20
2018-08-17T19:35:45.034Z,53.30
2018-08-17T19:38:15.776Z,53.50
2018-08-17T19:40:46.330Z,53.60
2018-08-17T19:43:16.698Z,53.90
2018-08-17T19:45:47.156Z,54.40
2018-08-17T19:48:18.521Z,54.90
2018-08-17T19:50:51.507Z,55.10
2018-08-17T19:53:22.270Z,55.40
2018-08-17T19:55:53.902Z,54.90
2018-08-17T19:58:24.377Z,55.00
2018-08-17T20:00:54.732Z,54.90
2018-08-17T20:03:25.028Z,54.90
2018-08-17T20:05:55.261Z,54.90
2018-08-17T20:08:25.934Z,54.80
2018-08-17T20:10:56.892Z,54.80
2018-08-17T20:13:27.545Z,54.70
2018-08-17T20:15:57.991Z,54.70
2018-08-17T20:18:28.277Z,54.70
2018-08-17T20:20:58.696Z,54.80
2018-08-17T20:23:29.078Z,54.70
2018-08-17T20:25:59.635Z,54.90
2018-08-17T20:28:31.813Z,55.30
2018-08-17T20:31:02.217Z,55.60
2018-08-17T20:33:32.635Z,56.00
2018-08-17T20:36:02.931Z,56.30
2018-08-17T20:38:33.430Z,56.50
2018-08-17T20:41:04.061Z,56.50
2018-08-17T20:43:34.419Z,56.50
2018-08-17T20:46:05.032Z,56.90
2018-08-17T20:48:35.475Z,56.90
2018-08-17T20:51:07.681Z,57.50
2018-08-17T20:53:38.266Z,57.10
2018-08-17T20:56:08.800Z,58.10
2018-08-17T20:58:39.166Z,58.40
2018-08-17T21:01:09.618Z,58.70
2018-08-17T21:03:39.857Z,59.10
2018-08-17T21:06:10.509Z,59.50
2018-08-17T21:08:41.149Z,59.90
2018-08-17T21:11:12.029Z,60.20
2018-08-17T21:13:42.681Z,61.40
2018-08-17T21:16:13.272Z,61.20
2018-08-17T21:18:43.729Z,61.60
2018-08-17T21:21:14.527Z,62.50
2018-08-17T21:23:45.348Z,63.40
2018-08-17T21:26:15.945Z,63.70
2018-08-17T21:28:46.451Z,64.30
2018-08-17T21:31:17.587Z,64.80
2018-08-17T21:33:47.974Z,65.50
2018-08-17T21:36:18.501Z,65.90
2018-08-17T21:39:02.282Z,66.20
2018-08-17T21:41:32.636Z,67.40
2018-08-17T21:44:02.930Z,67.30
2018-08-17T21:46:33.155Z,67.90
2018-08-17T21:49:03.749Z,68.10
2018-08-17T21:51:34.875Z,68.30
2018-08-17T21:54:05.958Z,68.90
2018-08-17T21:56:36.772Z,69.30
2018-08-17T21:59:07.388Z,70.10
2018-08-17T22:01:38.064Z,70.40
2018-08-17T22:04:08.657Z,71.20
2018-08-17T22:06:39.233Z,71.50
2018-08-17T22:09:11.192Z,72.10
2018-08-17T22:11:42.943Z,72.60
2018-08-17T22:14:13.336Z,73.10
2018-08-17T22:16:44.186Z,73.40
2018-08-17T22:19:27.848Z,73.60
2018-08-17T22:21:58.687Z,73.60
2018-08-17T22:24:29.492Z,73.70
2018-08-17T22:26:59.897Z,73.50
2018-08-17T22:29:30.463Z,73.40
2018-08-17T22:32:00.742Z,73.60
2018-08-17T22:34:31.165Z,73.90
2018-08-17T22:37:02.229Z,74.30
2018-08-17T22:39:32.613Z,75.10
2018-08-17T22:42:02.910Z,75.70
2018-08-17T22:44:33.503Z,76.20
2018-08-17T22:47:14.606Z,76.30
2018-08-17T22:49:45.402Z,77.00
2018-08-17T22:52:16.138Z,77.00
2018-08-17T22:54:51.522Z,77.60
2018-08-17T22:57:22.067Z,77.70
2018-08-17T23:00:07.870Z,77.60
2018-08-17T23:02:38.451Z,78.60
2018-08-17T23:05:11.182Z,78.60
2018-08-17T23:07:41.515Z,79.10
2018-08-17T23:10:16.014Z,80.10
2018-08-17T23:12:47.485Z,80.70
2018-08-17T23:15:18.057Z,81.40
2018-08-17T23:17:53.522Z,82.50
2018-08-17T23:20:28.932Z,82.90
2018-08-17T23:23:00.522Z,83.30
2018-08-17T23:25:30.991Z,83.80
2018-08-17T23:28:01.323Z,84.30
2018-08-17T23:30:31.757Z,85.00
2018-08-17T23:33:02.146Z,85.10
2018-08-17T23:35:32.790Z,86.50
2018-08-17T23:38:03.114Z,87.00
2018-08-17T23:40:33.639Z,88.30
2018-08-17T23:43:04.184Z,90.60
2018-08-17T23:45:34.554Z,92.50
2018-08-17T23:48:04.902Z,93.60
2018-08-17T23:50:35.045Z,95.00
2018-08-17T23:53:05.605Z,97.30
2018-08-17T23:55:35.810Z,99.10
2018-08-17T23:58:06.844Z,99.90
